createdAt,value
2018-04-07T00:00:18.823Z,53.60
2018-04-07T00:02:45.863Z,53.90
2018-04-07T00:05:12.926Z,53.40
2018-04-07T00:07:39.943Z,54.20
2018-04-07T00:10:07.003Z,53.60
2018-04-07T00:12:34.103Z,53.70
2018-04-07T00:15:01.163Z,53.70
2018-04-07T00:17:28.223Z,53.80
2018-04-07T00:19:55.324Z,54.50
2018-04-07T00:22:22.424Z,53.80
2018-04-07T00:24:49.623Z,54.40
2018-04-07T00:27:16.663Z,54.40
2018-04-07T00:29:43.863Z,54.40
2018-04-07T00:32:11.628Z,54.50
2018-04-07T00:34:39.384Z,54.90
2018-04-07T00:37:07.257Z,55.40
2018-04-07T00:39:34.285Z,55.40
2018-04-07T00:42:01.384Z,55.50
2018-04-07T00:44:29.184Z,55.90
2018-04-07T00:46:56.203Z,55.80
2018-04-07T00:49:23.243Z,55.40
2018-04-07T00:51:50.305Z,55.70
2018-04-07T00:54:17.303Z,55.80
2018-04-07T00:56:44.344Z,55.20
2018-04-07T00:59:11.383Z,55.00
2018-04-07T01:01:38.445Z,55.50
2018-04-07T01:04:05.482Z,53.90
2018-04-07T01:06:32.583Z,54.50
2018-04-07T01:08:59.644Z,53.40
2018-04-07T01:11:26.683Z,54.20
2018-04-07T01:13:53.703Z,53.60
2018-04-07T01:16:20.743Z,52.90
2018-04-07T01:18:54.683Z,52.70
2018-04-07T01:21:21.750Z,52.90
2018-04-07T01:23:48.763Z,52.90
2018-04-07T01:26:16.584Z,52.60
2018-04-07T01:28:43.623Z,52.60
2018-04-07T01:31:10.742Z,52.90
2018-04-07T01:33:37.863Z,52.60
2018-04-07T01:36:04.903Z,52.10
2018-04-07T01:38:31.983Z,51.80
2018-04-07T01:40:58.983Z,51.50
2018-04-07T01:43:26.063Z,51.60
2018-04-07T01:45:53.063Z,51.30
2018-04-07T01:48:20.103Z,51.20
2018-04-07T01:50:47.183Z,50.70
2018-04-07T01:53:14.203Z,50.80
2018-04-07T01:55:41.223Z,50.80
2018-04-07T01:58:08.365Z,51.00
2018-04-07T02:00:35.483Z,50.70
2018-04-07T02:03:02.583Z,50.80
2018-04-07T02:05:29.723Z,50.70
2018-04-07T02:07:56.783Z,50.50
2018-04-07T02:10:23.883Z,50.40
2018-04-07T02:12:50.905Z,50.20
2018-04-07T02:15:18.023Z,50.20
2018-04-07T02:17:45.144Z,50.40
2018-04-07T02:20:12.184Z,50.30
2018-04-07T02:22:39.272Z,50.20
2018-04-07T02:25:06.283Z,50.00
2018-04-07T02:27:33.303Z,50.20
2018-04-07T02:30:00.430Z,50.40
2018-04-07T02:32:27.487Z,51.20
2018-04-07T02:34:54.523Z,51.30
2018-04-07T02:37:21.585Z,51.50
2018-04-07T02:39:48.603Z,51.50
2018-04-07T02:42:15.646Z,52.00
2018-04-07T02:44:42.667Z,52.10
2018-04-07T02:47:09.703Z,52.10
2018-04-07T02:49:36.704Z,52.30
2018-04-07T02:52:03.703Z,52.80
2018-04-07T02:54:30.764Z,53.00
2018-04-07T02:56:57.860Z,53.30
2018-04-07T02:59:24.943Z,54.30
2018-04-07T03:01:52.045Z,55.40
2018-04-07T03:04:19.103Z,56.60
2018-04-07T03:06:46.923Z,59.30
2018-04-07T03:09:13.944Z,59.20
2018-04-07T03:11:41.053Z,59.80
2018-04-07T03:14:08.293Z,60.80
2018-04-07T03:16:35.419Z,61.80
2018-04-07T03:19:02.395Z,62.20
2018-04-07T03:21:29.343Z,62.60
2018-04-07T03:23:56.544Z,62.80
2018-04-07T03:26:23.613Z,62.20
2018-04-07T03:28:50.526Z,61.90
2018-04-07T03:31:17.584Z,61.40
2018-04-07T03:33:44.699Z,61.00
2018-04-07T03:36:12.623Z,61.00
2018-04-07T03:38:39.623Z,60.90
2018-04-07T03:41:06.586Z,61.20
2018-04-07T03:43:33.643Z,60.60
2018-04-07T03:46:00.743Z,60.70
2018-04-07T03:48:27.863Z,60.70
2018-04-07T03:50:54.983Z,60.90
2018-04-07T03:53:22.043Z,61.20
2018-04-07T03:55:49.143Z,61.30
2018-04-07T03:58:16.202Z,61.70
2018-04-07T04:00:43.303Z,61.50
2018-04-07T04:03:10.383Z,61.30
2018-04-07T04:05:38.186Z,61.20
2018-04-07T04:08:05.223Z,61.20
2018-04-07T04:10:32.343Z,61.30
2018-04-07T04:12:59.383Z,61.40
2018-04-07T04:15:26.503Z,61.20
2018-04-07T04:17:53.543Z,60.60
2018-04-07T04:20:20.603Z,60.60
2018-04-07T04:22:47.703Z,61.00
2018-04-07T04:25:14.783Z,61.00
2018-04-07T04:27:41.783Z,61.70
2018-04-07T04:30:08.903Z,61.60
2018-04-07T04:32:35.943Z,61.60
2018-04-07T04:35:03.024Z,61.40
2018-04-07T04:37:30.066Z,61.30
2018-04-07T04:39:57.063Z,61.50
2018-04-07T04:42:24.184Z,61.60
2018-04-07T04:44:51.223Z,61.60
2018-04-07T04:47:18.263Z,61.60
2018-04-07T04:49:45.346Z,61.30
2018-04-07T04:52:12.303Z,61.90
2018-04-07T04:54:39.343Z,61.90
2018-04-07T04:57:06.363Z,61.70
2018-04-07T04:59:33.403Z,61.60
2018-04-07T05:02:00.504Z,61.10
2018-04-07T05:04:27.542Z,61.00
2018-04-07T05:06:54.623Z,61.00
2018-04-07T05:09:21.663Z,59.90
2018-04-07T05:11:49.423Z,57.80
2018-04-07T05:14:16.502Z,57.70
2018-04-07T05:16:43.624Z,56.40
2018-04-07T05:19:11.463Z,54.50
2018-04-07T05:21:38.523Z,54.40
2018-04-07T05:24:05.583Z,53.60
2018-04-07T05:26:32.624Z,53.10
2018-04-07T05:28:59.622Z,53.40
2018-04-07T05:31:27.670Z,53.70
2018-04-07T05:33:54.843Z,54.10
2018-04-07T05:36:21.862Z,54.40
2018-04-07T05:38:48.843Z,54.70
2018-04-07T05:41:15.866Z,55.00
2018-04-07T05:43:42.930Z,53.80
2018-04-07T05:46:09.963Z,52.80
2018-04-07T05:48:36.922Z,52.00
2018-04-07T05:51:03.943Z,51.30
2018-04-07T05:53:30.982Z,51.40
2018-04-07T05:55:58.022Z,52.00
2018-04-07T05:58:25.063Z,52.00
2018-04-07T06:00:52.125Z,52.20
2018-04-07T06:03:19.229Z,51.70
2018-04-07T06:05:46.291Z,51.90
2018-04-07T06:08:13.562Z,52.70
2018-04-07T06:10:41.588Z,52.30
2018-04-07T06:13:08.758Z,52.30
2018-04-07T06:15:36.123Z,52.30
2018-04-07T06:18:03.403Z,52.70
2018-04-07T06:20:31.405Z,52.40
2018-04-07T06:22:58.578Z,51.70
2018-04-07T06:25:25.803Z,52.00
2018-04-07T06:27:52.903Z,51.20
2018-04-07T06:30:20.043Z,51.20
2018-04-07T06:32:47.263Z,51.60
2018-04-07T06:35:14.522Z,51.60
2018-04-07T06:37:41.734Z,50.30
2018-04-07T06:40:09.022Z,51.30
2018-04-07T06:42:36.102Z,50.60
2018-04-07T06:45:03.463Z,50.40
2018-04-07T06:47:30.663Z,50.50
2018-04-07T06:49:57.782Z,49.90
2018-04-07T06:52:25.002Z,50.10
2018-04-07T06:54:52.285Z,49.80
2018-04-07T06:57:20.303Z,49.60
2018-04-07T06:59:47.643Z,49.50
2018-04-07T07:02:14.867Z,50.40
2018-04-07T07:04:42.103Z,51.10
2018-04-07T07:07:09.324Z,50.30
2018-04-07T07:09:36.623Z,49.10
2018-04-07T07:12:03.825Z,49.40
2018-04-07T07:14:31.002Z,49.10
2018-04-07T07:16:58.342Z,48.80
2018-04-07T07:19:26.284Z,48.30
2018-04-07T07:21:53.463Z,48.30
2018-04-07T07:24:20.719Z,48.60
2018-04-07T07:26:47.942Z,49.50
2018-04-07T07:29:15.064Z,47.80
2018-04-07T07:31:42.922Z,47.70
2018-04-07T07:34:10.102Z,47.70
2018-04-07T07:36:37.519Z,47.70
2018-04-07T07:39:05.882Z,48.20
2018-04-07T07:41:33.743Z,46.70
2018-04-07T07:44:01.002Z,46.70
2018-04-07T07:46:28.943Z,46.70
2018-04-07T07:48:56.262Z,46.70
2018-04-07T07:51:23.544Z,46.30
2018-04-07T07:53:50.844Z,46.50
2018-04-07T07:56:18.023Z,45.40
2018-04-07T07:58:45.222Z,45.60
2018-04-07T08:01:12.362Z,45.10
2018-04-07T08:03:39.483Z,44.50
2018-04-07T08:06:06.682Z,44.50
2018-04-07T08:08:34.437Z,44.80
2018-04-07T08:11:01.623Z,44.80
2018-04-07T08:13:28.651Z,45.20
2018-04-07T08:15:55.870Z,44.40
2018-04-07T08:18:23.883Z,44.50
2018-04-07T08:20:50.972Z,44.50
2018-04-07T08:23:18.203Z,46.00
2018-04-07T08:25:45.405Z,44.40
2018-04-07T08:28:12.565Z,45.20
2018-04-07T08:30:39.538Z,43.70
2018-04-07T08:33:06.652Z,43.00
2018-04-07T08:35:33.925Z,42.20
2018-04-07T08:38:01.242Z,42.50
2018-04-07T08:40:29.483Z,42.70
2018-04-07T08:42:56.682Z,42.10
2018-04-07T08:45:24.415Z,41.60
2018-04-07T08:47:51.453Z,41.50
2018-04-07T08:50:18.583Z,41.30
2018-04-07T08:52:45.544Z,41.50
2018-04-07T08:55:12.842Z,42.00
2018-04-07T08:57:39.853Z,41.30
2018-04-07T09:00:06.994Z,41.70
2018-04-07T09:02:34.132Z,41.20
2018-04-07T09:05:01.182Z,40.00
2018-04-07T09:07:28.274Z,40.00
2018-04-07T09:09:56.283Z,40.00
2018-04-07T09:12:23.538Z,40.10
2018-04-07T09:14:50.683Z,40.30
2018-04-07T09:17:17.906Z,39.50
2018-04-07T09:19:45.957Z,39.60
2018-04-07T09:22:13.062Z,39.60
2018-04-07T09:24:40.184Z,39.30
2018-04-07T09:27:07.403Z,38.80
2018-04-07T09:29:35.482Z,38.70
2018-04-07T09:32:03.403Z,37.20
2018-04-07T09:34:31.482Z,37.20
2018-04-07T09:36:58.763Z,39.50
2018-04-07T09:39:25.962Z,37.70
2018-04-07T09:41:53.244Z,37.70
2018-04-07T09:44:20.524Z,37.50
2018-04-07T09:46:48.442Z,39.10
2018-04-07T09:49:15.642Z,39.00
2018-04-07T09:51:42.902Z,37.40
2018-04-07T09:54:09.862Z,38.40
2018-04-07T09:56:37.066Z,38.30
2018-04-07T09:59:04.263Z,37.30
2018-04-07T10:01:31.562Z,35.80
2018-04-07T10:03:58.845Z,35.80
2018-04-07T10:06:26.282Z,36.20
2018-04-07T10:08:53.563Z,34.80
2018-04-07T10:11:21.498Z,35.30
2018-04-07T10:13:48.603Z,35.40
2018-04-07T10:16:15.783Z,35.80
2018-04-07T10:18:43.023Z,36.30
2018-04-07T10:21:10.184Z,35.10
2018-04-07T10:23:37.404Z,36.00
2018-04-07T10:26:04.926Z,35.70
2018-04-07T10:28:32.903Z,35.50
2018-04-07T10:31:00.103Z,35.50
2018-04-07T10:33:28.110Z,36.90
2018-04-07T10:35:56.063Z,35.20
2018-04-07T10:38:24.043Z,35.00
2018-04-07T10:40:51.243Z,35.00
2018-04-07T10:43:18.603Z,36.40
2018-04-07T10:45:45.883Z,34.90
2018-04-07T10:48:13.183Z,34.80
2018-04-07T10:50:41.009Z,35.00
2018-04-07T10:53:08.203Z,35.00
2018-04-07T10:55:35.322Z,35.20
2018-04-07T10:58:02.423Z,35.70
2018-04-07T11:00:29.543Z,34.90
2018-04-07T11:02:56.763Z,35.30
2018-04-07T11:05:24.043Z,35.80
2018-04-07T11:07:51.323Z,34.10
2018-04-07T11:10:18.523Z,34.40
2018-04-07T11:12:45.723Z,34.80
2018-04-07T11:15:13.002Z,35.00
2018-04-07T11:17:40.183Z,32.80
2018-04-07T11:20:07.323Z,33.50
2018-04-07T11:22:34.525Z,32.50
2018-04-07T11:25:01.723Z,34.20
2018-04-07T11:27:29.625Z,33.30
2018-04-07T11:29:56.804Z,33.20
2018-04-07T11:32:24.744Z,34.00
2018-04-07T11:34:51.962Z,33.90
2018-04-07T11:37:19.243Z,33.60
2018-04-07T11:39:46.463Z,33.70
2018-04-07T11:42:13.642Z,32.30
2018-04-07T11:44:40.925Z,33.40
2018-04-07T11:47:08.923Z,31.40
2018-04-07T11:49:36.223Z,31.30
2018-04-07T11:52:03.423Z,30.20
2018-04-07T11:54:30.762Z,32.80
2018-04-07T11:56:58.764Z,31.70
2018-04-07T11:59:25.975Z,31.60
2018-04-07T12:01:53.383Z,32.00
2018-04-07T12:04:20.503Z,31.70
2018-04-07T12:06:48.442Z,31.60
2018-04-07T12:09:15.635Z,31.60
2018-04-07T12:11:43.591Z,31.80
2018-04-07T12:14:10.923Z,31.80
2018-04-07T12:16:38.043Z,32.00
2018-04-07T12:19:05.243Z,32.90
2018-04-07T12:21:32.456Z,31.90
2018-04-07T12:23:59.644Z,30.20
2018-04-07T12:26:26.711Z,31.70
2018-04-07T12:28:54.662Z,30.70
2018-04-07T12:31:21.863Z,30.10
2018-04-07T12:33:49.078Z,31.60
2018-04-07T12:36:16.363Z,31.10
2018-04-07T12:38:43.565Z,30.70
2018-04-07T12:41:10.782Z,30.40
2018-04-07T12:43:38.763Z,31.20
2018-04-07T12:46:06.201Z,30.20
2018-04-07T12:48:33.383Z,30.40
2018-04-07T12:51:00.682Z,31.00
2018-04-07T12:53:28.042Z,31.80
2018-04-07T12:55:55.242Z,30.60
2018-04-07T12:58:22.422Z,31.20
2018-04-07T13:00:49.462Z,31.10
2018-04-07T13:03:16.662Z,30.30
2018-04-07T13:05:43.783Z,31.20
2018-04-07T13:08:10.818Z,30.80
2018-04-07T13:10:37.886Z,32.20
2018-04-07T13:13:05.083Z,30.40
2018-04-07T13:15:32.363Z,31.70
2018-04-07T13:18:00.362Z,31.60
2018-04-07T13:20:27.499Z,31.50
2018-04-07T13:22:54.742Z,32.50
2018-04-07T13:25:21.802Z,30.70
2018-04-07T13:27:49.005Z,32.10
2018-04-07T13:30:16.222Z,31.20
2018-04-07T13:32:43.222Z,30.90
2018-04-07T13:35:10.343Z,31.30
2018-04-07T13:37:37.503Z,32.10
2018-04-07T13:40:04.633Z,31.40
2018-04-07T13:42:31.619Z,31.10
2018-04-07T13:44:58.626Z,31.40
2018-04-07T13:47:25.723Z,30.10
2018-04-07T13:49:52.923Z,30.30
2018-04-07T13:52:20.134Z,30.40
2018-04-07T13:54:47.324Z,30.60
2018-04-07T13:57:14.542Z,31.40
2018-04-07T13:59:41.739Z,31.20
2018-04-07T14:02:08.905Z,31.20
2018-04-07T14:04:36.102Z,31.50
2018-04-07T14:07:03.233Z,31.50
2018-04-07T14:09:30.286Z,32.10
2018-04-07T14:11:57.503Z,32.70
2018-04-07T14:14:24.843Z,32.10
2018-04-07T14:16:52.084Z,31.80
2018-04-07T14:19:19.307Z,31.80
2018-04-07T14:21:46.582Z,31.70
2018-04-07T14:24:13.715Z,32.10
2018-04-07T14:26:40.672Z,32.30
2018-04-07T14:29:07.904Z,32.40
2018-04-07T14:31:34.940Z,32.90
2018-04-07T14:34:02.103Z,32.40
2018-04-07T14:36:29.046Z,33.30
2018-04-07T14:38:56.017Z,33.60
2018-04-07T14:41:23.242Z,32.90
2018-04-07T14:43:50.498Z,32.70
2018-04-07T14:46:17.629Z,33.40
2018-04-07T14:48:44.862Z,33.90
2018-04-07T14:51:12.657Z,34.00
2018-04-07T14:53:39.673Z,34.00
2018-04-07T14:56:06.923Z,33.70
2018-04-07T14:58:34.201Z,34.30
2018-04-07T15:01:01.405Z,34.00
2018-04-07T15:03:28.602Z,33.30
2018-04-07T15:05:55.822Z,33.80
2018-04-07T15:08:22.982Z,34.10
2018-04-07T15:10:49.993Z,34.70
2018-04-07T15:13:17.014Z,35.00
2018-04-07T15:15:44.035Z,34.60
2018-04-07T15:18:11.163Z,35.30
2018-04-07T15:20:38.443Z,35.20
2018-04-07T15:23:05.663Z,35.10
2018-04-07T15:25:32.846Z,35.00
2018-04-07T15:28:00.123Z,35.50
2018-04-07T15:30:27.302Z,35.90
2018-04-07T15:32:54.522Z,36.60
2018-04-07T15:35:21.803Z,35.90
2018-04-07T15:37:49.002Z,36.20
2018-04-07T15:40:16.170Z,35.70
2018-04-07T15:42:43.932Z,36.30
2018-04-07T15:45:11.063Z,36.20
2018-04-07T15:47:38.302Z,36.40
2018-04-07T15:50:06.442Z,36.80
2018-04-07T15:52:34.442Z,37.00
2018-04-07T15:55:01.643Z,37.00
2018-04-07T15:57:29.642Z,37.20
2018-04-07T15:59:57.642Z,36.90
2018-04-07T16:02:24.843Z,36.90
2018-04-07T16:04:52.030Z,37.20
2018-04-07T16:07:19.205Z,38.30
2018-04-07T16:09:46.526Z,38.50
2018-04-07T16:12:13.822Z,38.30
2018-04-07T16:14:40.982Z,38.20
2018-04-07T16:17:08.103Z,38.40
2018-04-07T16:19:35.302Z,38.40
2018-04-07T16:22:02.524Z,39.00
2018-04-07T16:24:30.522Z,39.30
2018-04-07T16:26:57.817Z,39.20
2018-04-07T16:29:25.084Z,39.40
2018-04-07T16:31:52.302Z,39.80
2018-04-07T16:34:20.363Z,39.70
2018-04-07T16:36:48.282Z,40.30
2018-04-07T16:39:15.482Z,40.30
2018-04-07T16:41:43.502Z,40.60
2018-04-07T16:44:10.762Z,40.50
2018-04-07T16:46:38.842Z,40.80
2018-04-07T16:49:06.023Z,40.80
2018-04-07T16:51:33.143Z,40.90
2018-04-07T16:54:00.262Z,41.10
2018-04-07T16:56:27.564Z,40.30
2018-04-07T16:58:54.763Z,40.40
2018-04-07T17:01:21.950Z,40.40
2018-04-07T17:03:49.996Z,41.20
2018-04-07T17:06:17.402Z,40.80
2018-04-07T17:08:44.763Z,40.80
2018-04-07T17:11:12.042Z,41.00
2018-04-07T17:13:39.265Z,41.10
2018-04-07T17:16:06.443Z,41.50
2018-04-07T17:18:33.643Z,41.80
2018-04-07T17:21:00.923Z,41.70
2018-04-07T17:23:28.182Z,42.10
2018-04-07T17:25:56.102Z,42.40
2018-04-07T17:28:23.223Z,42.30
2018-04-07T17:30:57.562Z,42.60
2018-04-07T17:33:24.842Z,42.90
2018-04-07T17:35:52.043Z,43.10
2018-04-07T17:38:19.249Z,43.30
2018-04-07T17:40:46.683Z,43.50
2018-04-07T17:43:14.134Z,43.60
2018-04-07T17:45:41.502Z,43.90
2018-04-07T17:48:08.842Z,44.20
2018-04-07T17:50:36.043Z,44.50
2018-04-07T17:53:03.244Z,44.90
2018-04-07T17:55:30.525Z,44.90
2018-04-07T17:57:57.693Z,45.50
2018-04-07T18:00:24.822Z,45.70
2018-04-07T18:02:52.103Z,46.00
2018-04-07T18:05:19.302Z,46.20
2018-04-07T18:07:46.522Z,46.10
2018-04-07T18:10:13.883Z,46.30
2018-04-07T18:12:41.084Z,46.50
2018-04-07T18:15:08.362Z,46.70
2018-04-07T18:17:35.662Z,46.50
2018-04-07T18:20:02.973Z,46.70
2018-04-07T18:22:30.203Z,46.90
2018-04-07T18:24:57.601Z,46.60
2018-04-07T18:27:24.624Z,46.90
2018-04-07T18:29:51.805Z,46.70
2018-04-07T18:32:18.903Z,46.90
2018-04-07T18:34:46.023Z,46.90
2018-04-07T18:37:13.223Z,47.30
2018-04-07T18:39:40.498Z,47.50
2018-04-07T18:42:07.644Z,47.70
2018-04-07T18:44:34.902Z,47.90
2018-04-07T18:47:02.122Z,48.60
2018-04-07T18:49:29.323Z,48.70
2018-04-07T18:51:56.443Z,48.90
2018-04-07T18:54:23.663Z,49.40
2018-04-07T18:56:50.903Z,49.50
2018-04-07T18:59:18.144Z,50.00
2018-04-07T19:01:45.563Z,50.00
2018-04-07T19:04:13.567Z,50.90
2018-04-07T19:06:41.483Z,51.10
2018-04-07T19:09:08.843Z,51.00
2018-04-07T19:11:35.863Z,51.30
2018-04-07T19:14:02.983Z,51.50
2018-04-07T19:16:30.103Z,51.70
2018-04-07T19:18:57.304Z,51.50
2018-04-07T19:21:24.343Z,51.60
2018-04-07T19:23:51.623Z,51.90
2018-04-07T19:26:18.834Z,52.20
2018-04-07T19:28:46.043Z,52.40
2018-04-07T19:31:13.398Z,52.80
2018-04-07T19:33:40.584Z,52.70
2018-04-07T19:36:08.610Z,53.20
2018-04-07T19:38:35.947Z,53.20
2018-04-07T19:41:03.145Z,53.60
2018-04-07T19:43:30.446Z,53.70
2018-04-07T19:45:57.704Z,54.30
2018-04-07T19:48:24.828Z,54.30
2018-04-07T19:50:52.042Z,54.20
2018-04-07T19:53:19.263Z,54.50
2018-04-07T19:55:46.424Z,54.70
2018-04-07T19:58:13.543Z,54.90
2018-04-07T20:00:40.705Z,55.20
2018-04-07T20:03:07.863Z,55.40
2018-04-07T20:05:35.164Z,55.50
2018-04-07T20:08:02.423Z,55.90
2018-04-07T20:10:29.562Z,56.40
2018-04-07T20:12:56.764Z,56.80
2018-04-07T20:15:23.983Z,57.00
2018-04-07T20:17:51.145Z,57.40
2018-04-07T20:20:18.365Z,57.60
2018-04-07T20:22:46.444Z,58.70
2018-04-07T20:25:13.623Z,58.60
2018-04-07T20:27:40.743Z,58.40
2018-04-07T20:30:07.944Z,59.10
2018-04-07T20:32:35.083Z,59.20
2018-04-07T20:35:02.263Z,59.20
2018-04-07T20:37:29.423Z,59.60
2018-04-07T20:39:56.584Z,59.70
2018-04-07T20:42:27.706Z,59.80
2018-04-07T20:44:55.085Z,60.00
2018-04-07T20:47:23.164Z,60.60
2018-04-07T20:49:50.443Z,60.60
2018-04-07T20:52:17.663Z,60.70
2018-04-07T20:54:44.893Z,60.90
2018-04-07T20:57:12.824Z,61.30
2018-04-07T20:59:40.023Z,61.30
2018-04-07T21:02:07.223Z,61.70
2018-04-07T21:04:34.343Z,61.60
2018-04-07T21:07:01.543Z,61.50
2018-04-07T21:09:28.744Z,61.60
2018-04-07T21:11:56.663Z,61.60
2018-04-07T21:14:23.903Z,61.60
2018-04-07T21:16:51.064Z,61.80
2018-04-07T21:19:18.184Z,61.90
2018-04-07T21:21:45.384Z,62.30
2018-04-07T21:24:12.523Z,62.70
2018-04-07T21:26:39.804Z,62.80
2018-04-07T21:29:07.083Z,63.30
2018-04-07T21:31:34.343Z,63.60
2018-04-07T21:34:01.563Z,63.90
2018-04-07T21:36:29.785Z,64.40
2018-04-07T21:38:56.983Z,65.20
2018-04-07T21:41:24.144Z,65.20
2018-04-07T21:43:52.123Z,65.70
2018-04-07T21:46:19.303Z,65.70
2018-04-07T21:48:46.504Z,65.80
2018-04-07T21:51:13.723Z,65.90
2018-04-07T21:53:40.903Z,65.80
2018-04-07T21:56:08.104Z,66.10
2018-04-07T21:58:35.943Z,66.10
2018-04-07T22:01:03.224Z,66.10
2018-04-07T22:03:30.343Z,66.50
2018-04-07T22:05:57.503Z,66.70
2018-04-07T22:08:24.763Z,66.80
2018-04-07T22:10:52.103Z,67.50
2018-04-07T22:13:19.463Z,68.10
2018-04-07T22:15:46.663Z,68.50
2018-04-07T22:18:14.605Z,68.70
2018-04-07T22:20:41.943Z,68.70
2018-04-07T22:23:09.864Z,69.00
2018-04-07T22:25:37.143Z,68.50
2018-04-07T22:28:04.503Z,68.50
2018-04-07T22:30:31.803Z,69.00
2018-04-07T22:32:59.063Z,69.10
2018-04-07T22:35:26.383Z,69.30
2018-04-07T22:37:53.703Z,69.70
2018-04-07T22:40:20.987Z,70.00
2018-04-07T22:42:49.023Z,70.30
2018-04-07T22:45:16.182Z,70.30
2018-04-07T22:47:43.404Z,70.60
2018-04-07T22:50:10.662Z,70.70
2018-04-07T22:52:37.883Z,70.80
2018-04-07T22:55:05.064Z,70.80
2018-04-07T22:57:32.345Z,70.80
2018-04-07T22:59:59.546Z,71.40
2018-04-07T23:02:26.743Z,71.40
2018-04-07T23:04:54.024Z,71.50
2018-04-07T23:07:21.227Z,71.50
2018-04-07T23:09:48.431Z,71.50
2018-04-07T23:12:15.723Z,71.40
2018-04-07T23:14:42.904Z,71.00
2018-04-07T23:17:10.024Z,70.70
2018-04-07T23:19:37.322Z,70.60
2018-04-07T23:22:04.523Z,70.40
2018-04-07T23:24:32.424Z,70.30
2018-04-07T23:26:59.583Z,70.20
2018-04-07T23:29:26.743Z,70.40
2018-04-07T23:31:53.864Z,70.40
2018-04-07T23:34:21.103Z,70.40
2018-04-07T23:36:48.283Z,70.40
2018-04-07T23:39:15.476Z,70.70
2018-04-07T23:41:43.484Z,71.20
2018-04-07T23:44:10.683Z,71.20
2018-04-07T23:46:37.823Z,71.40
2018-04-07T23:49:05.063Z,71.60
2018-04-07T23:51:32.263Z,72.00
2018-04-07T23:53:59.464Z,72.20
2018-04-07T23:56:26.823Z,72.50
2018-04-07T23:58:53.969Z,73.00
